Time;durP1;ratioP1;P1;durP2;ratioP2;P2;SDS_P1;SDS_P2;PMS_P1;PMS_P2;Temp;Humidity;BMP_temperature;BMP_pressure;BME280_temperature;BME280_humidity;BME280_pressure;Samples;Min_cycle;Max_cycle;Signal;HPM_P1;HPM_P2
2022/08/08 00:01:27;;;;;;;14.02;6.95;;;;;;;15.96;62.71;102388.44;5030142;28;20037;-74
2022/08/08 00:04:10;;;;;;;12.23;6.70;;;;;;;15.95;63.45;102397.34;5031117;28;20029;-74
2022/08/08 00:06:53;;;;;;;10.90;6.20;;;;;;;15.91;63.60;102391.22;5031260;28;20076;-74
2022/08/08 00:09:43;;;;;;;9.98;7.28;;;;;;;15.89;63.77;102387.69;5031252;28;20091;-74
2022/08/08 00:12:13;;;;;;;16.33;6.82;;;;;;;15.80;64.66;102394.09;5031095;28;20124;-74
2022/08/08 00:15:21;;;;;;;10.23;6.85;;;;;;;15.83;64.03;102387.81;5031399;28;20045;-74
2022/08/08 00:18:15;;;;;;;12.98;6.70;;;;;;;15.80;65.72;102393.19;5020444;28;20060;-74
2022/08/08 00:20:51;;;;;;;8.85;6.30;;;;;;;15.73;64.24;102388.91;5021032;28;20141;-74
2022/08/08 00:23:44;;;;;;;10.13;7.00;;;;;;;15.69;65.72;102388.03;5031295;28;20052;-74
2022/08/08 00:26:16;;;;;;;12.35;7.20;;;;;;;15.65;65.60;102392.56;5029649;28;20133;-73
2022/08/08 00:28:46;;;;;;;11.93;6.95;;;;;;;15.60;65.73;102389.09;5030683;28;20081;-73
2022/08/08 00:31:17;;;;;;;10.52;7.13;;;;;;;15.62;66.27;102389.03;5030022;28;20041;-73
2022/08/08 00:35:09;;;;;;;14.15;7.57;;;;;;;15.61;66.04;102385.50;5017425;28;20052;-74
2022/08/08 00:36:56;;;;;;;13.30;7.93;;;;;;;15.59;66.58;102391.78;5029187;28;20037;-74
2022/08/08 00:39:45;;;;;;;14.30;9.05;;;;;;;15.56;66.68;102395.38;5029348;28;20025;-74
2022/08/08 00:42:38;;;;;;;11.82;7.80;;;;;;;15.53;67.26;102390.09;5031453;28;20210;-74
2022/08/08 00:45:39;;;;;;;13.38;8.50;;;;;;;15.54;66.15;102397.19;5034471;28;20057;-73
2022/08/08 00:48:29;;;;;;;16.33;8.98;;;;;;;15.49;65.51;102383.03;5034178;28;20033;-74
2022/08/08 00:51:23;;;;;;;14.27;9.27;;;;;;;15.44;67.15;102387.59;5022375;28;20029;-74
2022/08/08 00:54:07;;;;;;;17.25;9.60;;;;;;;15.37;67.45;102380.59;5032622;28;20038;-74
2022/08/08 00:56:48;;;;;;;13.57;9.30;;;;;;;15.39;67.77;102382.31;5029659;28;20057;-74
2022/08/08 00:59:14;;;;;;;14.50;9.20;;;;;;;15.34;68.37;102386.88;5020617;28;20052;-74
2022/08/08 01:02:06;;;;;;;14.25;8.85;;;;;;;15.36;67.46;102378.84;5033998;28;20458;-74
2022/08/08 01:05:14;;;;;;;15.95;9.15;;;;;;;15.30;67.79;102378.94;5019274;28;20129;-73
2022/08/08 01:08:30;;;;;;;15.43;8.90;;;;;;;15.26;67.89;102375.44;5001580;28;20091;-73
2022/08/08 01:11:11;;;;;;;14.25;9.13;;;;;;;15.21;67.61;102371.97;4995047;28;20026;-73
2022/08/08 01:13:48;;;;;;;13.40;8.50;;;;;;;15.15;68.32;102380.06;5024427;28;20122;-74
2022/08/08 01:16:45;;;;;;;16.83;9.15;;;;;;;15.14;68.24;102370.31;5025548;28;20045;-74
2022/08/08 01:19:22;;;;;;;14.68;9.60;;;;;;;15.10;69.25;102376.59;5032391;28;20022;-74
2022/08/08 01:22:17;;;;;;;13.07;8.55;;;;;;;15.05;68.07;102374.00;5015942;28;20056;-73
2022/08/08 01:24:58;;;;;;;13.90;8.93;;;;;;;15.03;68.76;102375.81;5019818;28;20107;-73
2022/08/08 01:27:47;;;;;;;14.75;9.30;;;;;;;14.98;68.41;102375.88;5015767;28;20038;-74
2022/08/08 01:30:26;;;;;;;17.00;9.55;;;;;;;14.94;69.17;102386.66;4991772;28;20131;-74
2022/08/08 01:33:15;;;;;;;16.58;9.93;;;;;;;14.91;67.85;102376.00;4995499;28;20552;-73
2022/08/08 01:35:59;;;;;;;15.82;9.52;;;;;;;14.84;69.11;102384.09;4996118;28;20026;-73
2022/08/08 01:38:43;;;;;;;13.13;8.95;;;;;;;14.83;70.36;102379.66;4995473;28;20136;-74
2022/08/08 01:41:30;;;;;;;14.50;9.40;;;;;;;14.84;70.18;102384.09;4995664;28;20037;-73
2022/08/08 01:44:16;;;;;;;15.43;9.95;;;;;;;14.86;70.21;102377.84;4992307;28;20054;-74
2022/08/08 01:46:42;;;;;;;14.60;10.38;;;;;;;14.83;71.11;102381.44;4995457;28;20026;-74
2022/08/08 01:49:22;;;;;;;14.60;9.88;;;;;;;14.80;71.08;102382.38;4995392;28;20042;-74
2022/08/08 01:51:55;;;;;;;15.43;9.32;;;;;;;14.76;70.40;102385.09;4995432;28;20219;-73
2022/08/08 01:54:40;;;;;;;17.05;9.23;;;;;;;14.74;70.70;102378.94;4994768;28;20049;-74
2022/08/08 01:58:04;;;;;;;15.63;9.80;;;;;;;14.78;69.74;102376.19;5008287;28;20033;-73
2022/08/08 02:00:44;;;;;;;17.50;10.25;;;;;;;14.70;72.01;102375.44;4952777;28;20139;-73
2022/08/08 02:03:22;;;;;;;18.25;9.52;;;;;;;14.68;71.74;102385.22;4991754;28;20126;-74
2022/08/08 02:06:15;;;;;;;16.65;9.90;;;;;;;14.67;71.49;102383.47;4995408;28;20037;-74
2022/08/08 02:08:55;;;;;;;17.42;9.65;;;;;;;14.63;72.05;102379.06;4977509;28;20030;-74
2022/08/08 02:11:33;;;;;;;13.13;8.93;;;;;;;14.58;72.14;102372.94;4991669;28;20501;-74
2022/08/08 02:13:59;;;;;;;13.23;9.30;;;;;;;14.57;72.74;102377.38;5012676;28;20490;-74
2022/08/08 02:16:47;;;;;;;18.38;10.38;;;;;;;14.55;72.27;102376.53;4981189;28;20150;-74
2022/08/08 02:19:30;;;;;;;16.83;10.02;;;;;;;14.54;72.88;102382.78;4995095;28;20136;-74
2022/08/08 02:22:32;;;;;;;13.82;10.00;;;;;;;14.52;71.93;102389.88;4995165;28;20065;-74
2022/08/08 02:25:18;;;;;;;18.25;10.10;;;;;;;14.46;72.96;102381.06;4994762;28;20068;-83
2022/08/08 02:28:04;;;;;;;14.52;10.13;;;;;;;14.48;72.25;102373.94;4994805;28;20094;-83
2022/08/08 02:30:40;;;;;;;17.35;11.27;;;;;;;14.41;73.89;102374.03;4994868;28;20033;-83
2022/08/08 02:33:46;;;;;;;16.00;10.27;;;;;;;14.40;72.52;102372.25;4994887;28;20041;-83
2022/08/08 02:36:38;;;;;;;14.45;10.18;;;;;;;14.35;72.87;102374.09;4987582;28;20048;-83
2022/08/08 02:39:32;;;;;;;17.08;10.25;;;;;;;14.26;72.70;102384.00;4994680;28;20485;-83
2022/08/08 02:42:16;;;;;;;14.70;9.40;;;;;;;14.23;72.51;102379.59;5012452;28;20405;-83
2022/08/08 02:45:01;;;;;;;14.07;9.55;;;;;;;14.15;72.51;102377.00;5021318;28;20048;-83
2022/08/08 02:47:32;;;;;;;16.50;10.07;;;;;;;14.17;72.81;102380.53;5013877;28;20461;-83
2022/08/08 02:50:37;;;;;;;13.40;9.35;;;;;;;14.16;72.48;102380.56;5004338;28;20053;-84
2022/08/08 02:53:27;;;;;;;20.60;10.48;;;;;;;14.16;74.07;102385.88;4994379;28;20034;-84
2022/08/08 02:56:24;;;;;;;12.80;9.70;;;;;;;14.16;73.79;102381.44;4978098;28;20041;-83
2022/08/08 02:59:22;;;;;;;15.70;9.52;;;;;;;14.14;74.22;102390.34;4947825;28;20128;-83
2022/08/08 03:01:59;;;;;;;21.15;9.75;;;;;;;14.10;73.88;102384.19;4984132;28;20410;-84
2022/08/08 03:04:37;;;;;;;13.00;9.20;;;;;;;14.07;74.58;102388.66;4996645;28;20060;-84
2022/08/08 03:07:23;;;;;;;14.25;9.35;;;;;;;14.07;73.43;102392.22;5003151;28;20033;-84
2022/08/08 03:10:14;;;;;;;18.35;9.75;;;;;;;13.98;73.80;102390.53;4999465;28;20092;-84
2022/08/08 03:13:17;;;;;;;14.50;10.43;;;;;;;13.99;73.71;102394.06;5012860;28;20045;-84
2022/08/08 03:16:05;;;;;;;13.73;9.15;;;;;;;13.95;75.66;102393.22;4994185;28;20085;-83
2022/08/08 03:18:51;;;;;;;19.33;10.57;;;;;;;13.93;74.38;102394.16;5002819;28;20045;-83
2022/08/08 03:21:17;;;;;;;13.07;9.73;;;;;;;13.90;75.83;102391.53;5012917;28;20067;-83
2022/08/08 03:23:44;;;;;;;13.23;9.98;;;;;;;13.88;77.33;102402.19;4994337;28;20029;-83
2022/08/08 03:26:11;;;;;;;14.70;9.73;;;;;;;13.86;76.14;102403.97;5024514;28;20049;-82
2022/08/08 03:28:45;;;;;;;14.52;9.82;;;;;;;13.85;77.01;102401.34;4984047;28;20049;-82
2022/08/08 03:33:56;;;;;;;12.50;9.63;;;;;;;13.80;76.99;102397.81;4993961;28;20060;-82
2022/08/08 03:36:23;;;;;;;13.18;9.18;;;;;;;13.77;76.87;102404.06;5006926;28;20034;-81
2022/08/08 03:38:51;;;;;;;14.13;9.43;;;;;;;13.76;77.30;102397.88;5014250;28;20040;-82
2022/08/08 03:41:18;;;;;;;18.52;9.77;;;;;;;13.76;76.84;102403.19;5018408;28;20140;-82
2022/08/08 03:43:55;;;;;;;14.90;9.80;;;;;;;13.74;77.07;102398.78;4996268;28;20113;-82
2022/08/08 03:46:21;;;;;;;13.90;9.10;;;;;;;13.72;76.57;102403.22;4994213;28;20041;-82
2022/08/08 03:49:01;;;;;;;11.88;8.27;;;;;;;13.72;76.02;102406.81;5010647;28;20108;-82
2022/08/08 03:51:34;;;;;;;12.75;8.70;;;;;;;13.69;76.71;102404.16;5018020;28;20564;-82
2022/08/08 03:54:00;;;;;;;15.23;9.60;;;;;;;13.64;77.36;102403.31;5005740;28;20094;-82
2022/08/08 03:56:31;;;;;;;13.25;9.60;;;;;;;13.66;77.46;102406.84;5000414;28;20129;-82
2022/08/08 03:58:57;;;;;;;17.08;9.20;;;;;;;13.66;77.91;102416.63;5020961;28;20325;-82
2022/08/08 04:01:34;;;;;;;11.88;8.98;;;;;;;13.66;77.21;102411.28;5000447;28;20124;-82
2022/08/08 04:04:00;;;;;;;11.25;8.77;;;;;;;13.64;77.46;102407.75;5026312;28;20128;-82
2022/08/08 04:06:29;;;;;;;12.98;8.93;;;;;;;13.62;77.09;102409.53;5029721;28;20072;-82
2022/08/08 04:08:55;;;;;;;11.20;8.70;;;;;;;13.57;77.39;102414.91;5024927;28;20542;-82
2022/08/08 04:11:23;;;;;;;14.65;8.82;;;;;;;13.56;77.20;102415.81;5022493;28;20096;-82
2022/08/08 04:13:48;;;;;;;9.95;8.52;;;;;;;13.54;77.62;102418.47;5009719;28;20037;-82
2022/08/08 04:16:14;;;;;;;11.10;8.68;;;;;;;13.50;77.77;102418.50;5013998;28;20046;-83
2022/08/08 04:18:42;;;;;;;14.35;9.35;;;;;;;13.45;78.04;102413.25;5020781;28;20086;-81
2022/08/08 04:21:09;;;;;;;17.50;9.10;;;;;;;13.42;78.04;102409.72;5033397;28;20405;-82
2022/08/08 04:23:35;;;;;;;9.50;8.15;;;;;;;13.40;78.10;102415.09;5021759;28;20045;-82
2022/08/08 04:26:01;;;;;;;12.88;8.45;;;;;;;13.39;77.51;102426.59;5017144;28;20501;-83
2022/08/08 04:28:27;;;;;;;12.10;8.30;;;;;;;13.42;78.54;102423.03;5001453;28;20042;-82
2022/08/08 04:30:52;;;;;;;14.30;8.38;;;;;;;13.41;78.71;102421.28;5013532;28;20374;-81
2022/08/08 04:33:18;;;;;;;14.70;8.20;;;;;;;13.41;77.78;102415.97;5027044;28;20098;-83
2022/08/08 04:35:44;;;;;;;16.33;8.45;;;;;;;13.41;78.10;102422.16;4997075;28;20133;-83
2022/08/08 04:38:10;;;;;;;12.27;8.50;;;;;;;13.42;78.33;102423.03;5010526;28;20041;-83
2022/08/08 04:40:42;;;;;;;10.57;8.55;;;;;;;13.45;78.81;102428.31;5000096;28;20037;-83
2022/08/08 04:43:08;;;;;;;16.45;9.38;;;;;;;13.46;79.29;102433.66;5013497;28;20460;-83
2022/08/08 04:45:41;;;;;;;15.00;10.15;;;;;;;13.49;79.38;102435.41;5003580;28;20036;-83
2022/08/08 04:48:07;;;;;;;13.73;9.95;;;;;;;13.51;79.65;102439.81;5009972;28;20102;-83
2022/08/08 04:50:35;;;;;;;13.30;10.10;;;;;;;13.54;79.77;102446.88;5000427;28;20425;-83
2022/08/08 04:53:01;;;;;;;17.00;10.18;;;;;;;13.54;79.75;102454.88;5012984;28;20116;-83
2022/08/08 04:55:27;;;;;;;14.13;10.60;;;;;;;13.56;80.17;102453.09;5011038;28;20173;-83
2022/08/08 04:57:53;;;;;;;12.98;9.98;;;;;;;13.56;80.35;102455.75;5002045;28;20030;-83
2022/08/08 05:00:19;;;;;;;17.60;11.57;;;;;;;13.58;80.14;102466.38;5012876;28;20038;-83
2022/08/08 05:02:45;;;;;;;16.80;11.60;;;;;;;13.59;80.08;102468.16;5009221;28;20030;-83
2022/08/08 05:05:10;;;;;;;17.38;10.60;;;;;;;13.63;80.18;102459.25;5006155;28;20091;-82
2022/08/08 05:07:36;;;;;;;13.77;10.73;;;;;;;13.65;79.85;102474.31;5004085;28;20161;-82
2022/08/08 05:10:04;;;;;;;12.77;9.60;;;;;;;13.70;79.97;102474.28;4986071;28;20041;-83
2022/08/08 05:12:32;;;;;;;17.95;11.18;;;;;;;13.73;80.59;102471.56;4999838;28;20026;-83
2022/08/08 05:14:59;;;;;;;16.45;11.60;;;;;;;13.76;80.65;102464.44;5013194;28;20115;-84
2022/08/08 05:17:25;;;;;;;16.05;11.07;;;;;;;13.84;80.62;102469.69;5011536;28;20033;-83
2022/08/08 05:19:50;;;;;;;16.58;10.98;;;;;;;13.90;80.99;102466.09;4999697;28;20576;-83
2022/08/08 05:22:18;;;;;;;19.63;11.13;;;;;;;13.96;80.66;102472.22;4995940;28;20117;-83
2022/08/08 05:24:48;;;;;;;14.70;10.45;;;;;;;14.05;80.44;102470.38;4996487;28;20037;-83
2022/08/08 05:27:15;;;;;;;15.10;10.60;;;;;;;14.11;80.35;102472.97;4994206;28;20045;-83
2022/08/08 05:29:41;;;;;;;14.48;10.52;;;;;;;14.16;80.95;102477.34;5006028;28;20057;-83
2022/08/08 05:32:08;;;;;;;12.18;9.20;;;;;;;14.24;80.85;102477.25;5019037;28;20036;-83
2022/08/08 05:34:47;;;;;;;25.95;11.30;;;;;;;14.32;80.75;102479.88;5020161;28;20041;-83
2022/08/08 05:37:22;;;;;;;15.98;10.40;;;;;;;14.39;80.05;102478.88;4981566;28;20061;-83
2022/08/08 05:39:52;;;;;;;14.35;10.40;;;;;;;14.46;80.89;102472.56;5012319;28;20030;-83
2022/08/08 05:42:19;;;;;;;15.60;11.23;;;;;;;14.56;80.65;102473.38;5031499;28;20056;-83
2022/08/08 05:44:48;;;;;;;17.55;11.20;;;;;;;14.61;80.13;102482.19;5020072;28;20132;-83
2022/08/08 05:47:15;;;;;;;17.02;11.77;;;;;;;14.68;80.37;102481.22;5023272;28;20076;-83
2022/08/08 05:49:46;;;;;;;15.32;10.85;;;;;;;14.76;80.17;102484.69;5012013;28;20034;-83
2022/08/08 05:52:12;;;;;;;17.63;10.47;;;;;;;14.83;79.93;102475.66;5012536;28;20033;-83
2022/08/08 05:54:38;;;;;;;13.93;9.95;;;;;;;14.93;79.81;102480.88;5031488;28;20319;-83
2022/08/08 05:57:10;;;;;;;14.25;9.52;;;;;;;15.00;79.53;102485.25;5031460;28;20461;-82
2022/08/08 05:59:39;;;;;;;16.30;10.05;;;;;;;15.06;79.21;102485.16;5023078;28;20452;-83
2022/08/08 06:03:09;;;;;;;12.03;9.43;;;;;;;15.16;78.18;102478.78;5011729;28;20120;-84
2022/08/08 06:05:04;;;;;;;13.05;8.90;;;;;;;15.29;78.59;102476.81;5011911;28;20037;-83
2022/08/08 06:07:31;;;;;;;13.80;9.30;;;;;;;15.37;78.51;102480.22;5015774;28;20145;-83
2022/08/08 06:10:01;;;;;;;17.65;8.77;;;;;;;15.44;78.08;102478.34;5031590;28;20482;-83
2022/08/08 06:12:31;;;;;;;24.27;9.20;;;;;;;15.51;77.41;102489.81;5014450;28;20524;-83
2022/08/08 06:15:01;;;;;;;17.73;8.73;;;;;;;15.57;77.83;102493.25;5006908;28;20030;-84
2022/08/08 06:17:27;;;;;;;12.98;8.07;;;;;;;15.67;77.53;102485.97;5007638;28;20043;-84
2022/08/08 06:19:55;;;;;;;15.10;8.98;;;;;;;15.78;77.38;102483.19;5007941;28;20474;-84
2022/08/08 06:22:20;;;;;;;12.73;8.05;;;;;;;15.87;76.90;102489.25;4991522;28;20038;-84
2022/08/08 06:24:51;;;;;;;;;;;;;;;16.00;75.45;102492.56;5010594;28;20457;-83
2022/08/08 06:27:28;;;;;;;11.88;8.27;;;;;;;16.10;75.69;102499.50;5009752;28;19921;-83
2022/08/08 06:29:54;;;;;;;10.52;7.82;;;;;;;16.16;75.86;102490.47;5008302;28;20506;-84
2022/08/08 06:32:29;;;;;;;12.63;7.38;;;;;;;16.22;75.46;102495.72;5018466;28;20041;-84
2022/08/08 06:34:59;;;;;;;11.98;7.28;;;;;;;16.32;75.52;102502.66;4985862;28;20030;-84
2022/08/08 06:37:31;;;;;;;16.85;7.93;;;;;;;16.43;75.28;102504.22;5011494;28;20042;-84
2022/08/08 06:40:03;;;;;;;11.32;6.88;;;;;;;16.53;75.07;102511.16;5010651;28;20659;-84
2022/08/08 06:42:35;;;;;;;10.30;6.13;;;;;;;16.61;73.82;102508.31;5010580;28;20453;-83
2022/08/08 06:45:04;;;;;;;11.40;6.85;;;;;;;16.69;73.95;102511.72;5010528;28;20033;-84
2022/08/08 06:47:30;;;;;;;13.15;6.85;;;;;;;16.79;73.57;102513.34;5010628;28;20517;-84
2022/08/08 06:49:56;;;;;;;10.63;6.45;;;;;;;16.89;73.22;102506.88;5001205;28;20128;-84
2022/08/08 06:52:23;;;;;;;13.75;6.53;;;;;;;17.00;73.41;102511.97;5029849;28;20100;-83
2022/08/08 06:54:49;;;;;;;9.85;6.78;;;;;;;17.08;72.81;102504.66;5011550;28;20504;-84
2022/08/08 06:57:15;;;;;;;10.68;5.78;;;;;;;17.15;72.79;102505.41;4990842;28;20046;-83
2022/08/08 06:59:42;;;;;;;9.45;6.10;;;;;;;17.25;71.99;102508.75;4994284;28;20041;-83
2022/08/08 07:02:18;;;;;;;10.68;6.30;;;;;;;17.35;71.27;102503.13;5010576;28;20042;-90
2022/08/08 07:04:55;;;;;;;12.50;6.00;;;;;;;17.49;71.19;102512.66;5010516;28;20041;-83
2022/08/08 07:07:28;;;;;;;14.02;6.50;;;;;;;17.58;70.74;102520.44;5010526;28;20386;-86
2022/08/08 07:10:08;;;;;;;10.82;5.45;;;;;;;17.68;70.07;102513.06;4999761;28;20489;-86
2022/08/08 07:12:51;;;;;;;15.60;5.35;;;;;;;17.79;70.20;102519.03;5001287;28;20038;-87
2022/08/08 07:15:51;;;;;;;12.70;5.63;;;;;;;17.92;68.74;102514.28;5015413;28;20026;-87
2022/08/08 07:18:46;;;;;;;10.70;5.03;;;;;;;18.04;68.66;102520.19;5003130;28;20358;-87
2022/08/08 07:21:19;;;;;;;11.55;4.85;;;;;;;18.14;67.50;102526.19;4984802;28;20034;-87
2022/08/08 07:23:56;;;;;;;8.70;4.60;;;;;;;18.24;66.89;102530.38;5009808;28;20057;-88
2022/08/08 07:26:25;;;;;;;10.30;4.70;;;;;;;18.33;66.54;102528.38;4988826;28;20062;-88
2022/08/08 07:28:52;;;;;;;11.50;4.47;;;;;;;18.40;66.05;102528.16;4993180;28;20038;-88
2022/08/08 07:31:19;;;;;;;8.20;4.18;;;;;;;18.50;66.16;102530.59;4994582;28;20084;-88
2022/08/08 07:33:47;;;;;;;10.13;3.83;;;;;;;18.59;65.41;102519.59;4989543;28;20030;-87
2022/08/08 07:36:14;;;;;;;7.07;3.75;;;;;;;18.70;65.92;102523.72;5009121;28;20584;-88
2022/08/08 07:38:40;;;;;;;8.60;3.80;;;;;;;18.83;65.23;102521.59;5013589;28;20030;-88
2022/08/08 07:41:08;;;;;;;9.63;3.80;;;;;;;18.95;64.73;102530.22;4993375;28;20034;-89
2022/08/08 07:43:35;;;;;;;7.15;3.22;;;;;;;19.01;63.67;102525.53;4989207;28;20191;-88
2022/08/08 07:46:02;;;;;;;10.93;3.40;;;;;;;19.07;63.53;102524.47;5007631;28;20045;-88
2022/08/08 07:48:28;;;;;;;8.38;2.75;;;;;;;19.15;62.79;102526.91;5008878;28;20509;-88
2022/08/08 07:50:57;;;;;;;14.48;2.63;;;;;;;19.21;62.46;102532.09;4992490;28;20030;-88
2022/08/08 07:53:37;;;;;;;4.82;2.53;;;;;;;19.26;62.22;102520.28;4976612;28;20542;-88
2022/08/08 07:56:06;;;;;;;7.07;2.53;;;;;;;19.40;62.20;102527.03;4997087;28;20038;-87
2022/08/08 07:58:41;;;;;;;5.83;2.43;;;;;;;19.54;61.71;102527.47;4992206;28;20492;-89
2022/08/08 08:01:10;;;;;;;8.63;2.60;;;;;;;19.70;61.51;102534.09;5011507;28;20452;-88
2022/08/08 08:03:39;;;;;;;7.38;2.10;;;;;;;19.80;60.59;102526.59;5000796;28;20069;-89
2022/08/08 08:06:05;;;;;;;8.80;2.38;;;;;;;19.92;59.97;102523.50;4996594;28;20026;-89
2022/08/08 08:08:59;;;;;;;10.23;2.38;;;;;;;19.99;60.44;102534.94;4980208;28;20041;-90
2022/08/08 08:11:32;;;;;;;8.10;3.23;;;;;;;20.06;60.12;102530.25;4985339;28;20490;-89
2022/08/08 08:14:04;;;;;;;8.75;3.00;;;;;;;20.19;59.36;102536.94;5012816;28;20042;-88
2022/08/08 08:16:50;;;;;;;9.80;2.80;;;;;;;20.24;59.62;102534.06;5012838;28;20037;-88
2022/08/08 08:19:16;;;;;;;18.27;2.42;;;;;;;20.33;59.01;102537.31;5001951;28;20377;-89
2022/08/08 08:21:47;;;;;;;5.75;2.35;;;;;;;20.48;58.35;102535.88;4996926;28;20115;-89
2022/08/08 08:24:19;;;;;;;5.78;2.45;;;;;;;20.65;58.29;102540.69;4997531;28;20091;-88
2022/08/08 08:26:45;;;;;;;6.60;2.28;;;;;;;20.75;57.29;102541.22;4972239;28;20161;-89
2022/08/08 08:29:10;;;;;;;6.50;1.90;;;;;;;20.85;55.91;102549.84;4979703;28;20050;-88
2022/08/08 08:31:38;;;;;;;6.43;2.38;;;;;;;20.92;56.00;102549.53;5010789;28;20049;-89
2022/08/08 08:34:04;;;;;;;9.02;2.30;;;;;;;20.99;55.52;102539.38;4997277;28;20490;-90
2022/08/08 08:36:34;;;;;;;11.88;2.55;;;;;;;21.07;55.14;102549.84;5013543;28;20038;-90
2022/08/08 08:39:00;;;;;;;8.55;2.40;;;;;;;21.14;55.63;102546.91;5003677;28;20125;-90
2022/08/08 08:41:33;;;;;;;7.35;2.10;;;;;;;21.22;55.15;102541.19;5033219;28;20087;-88
2022/08/08 08:44:01;;;;;;;3.65;1.80;;;;;;;21.34;55.04;102554.19;5019325;28;20105;-89
2022/08/08 08:46:29;;;;;;;5.30;1.90;;;;;;;21.44;54.59;102550.22;5004738;28;20046;-89
2022/08/08 08:48:56;;;;;;;7.25;2.42;;;;;;;21.58;54.22;102548.75;5007855;28;20041;-89
2022/08/08 08:51:26;;;;;;;5.88;2.50;;;;;;;21.69;54.23;102554.59;4997345;28;20091;-89
2022/08/08 08:53:57;;;;;;;8.60;2.00;;;;;;;21.82;53.57;102563.06;5013517;28;20021;-89
2022/08/08 08:56:27;;;;;;;8.65;2.10;;;;;;;21.96;52.65;102557.97;5013237;28;20042;-89
2022/08/08 08:59:00;;;;;;;6.05;2.03;;;;;;;22.06;52.73;102564.72;5029837;28;20092;-89
2022/08/08 09:01:36;;;;;;;6.13;1.90;;;;;;;22.05;52.45;102562.94;5017030;28;20111;-89
2022/08/08 09:04:09;;;;;;;5.35;1.83;;;;;;;22.09;52.31;102561.88;5017133;28;20034;-89
2022/08/08 09:06:41;;;;;;;8.77;2.08;;;;;;;22.19;51.90;102554.25;5016357;28;20033;-89
2022/08/08 09:09:21;;;;;;;9.82;1.88;;;;;;;22.25;52.10;102555.84;4999654;28;20045;-90
2022/08/08 09:11:47;;;;;;;5.38;1.67;;;;;;;22.33;50.72;102559.09;4996515;28;20034;-89
2022/08/08 09:14:15;;;;;;;6.93;2.13;;;;;;;22.47;50.06;102561.16;4996151;28;20504;-90
2022/08/08 09:16:43;;;;;;;5.38;1.63;;;;;;;22.52;50.39;102560.00;4996567;28;20063;-90
2022/08/08 09:19:10;;;;;;;8.48;1.73;;;;;;;22.70;50.72;102560.09;4996616;28;20133;-89
2022/08/08 09:21:37;;;;;;;6.53;1.98;;;;;;;22.95;50.46;102560.75;5010285;28;20045;-90
2022/08/08 09:24:04;;;;;;;6.22;1.75;;;;;;;23.07;49.18;102558.44;5013843;28;20034;-90
2022/08/08 09:27:11;;;;;;;7.75;1.90;;;;;;;23.17;49.09;102559.78;4978051;28;20445;-91
2022/08/08 09:30:04;;;;;;;8.35;2.10;;;;;;;23.23;49.68;102561.31;4975212;28;20497;-90
2022/08/08 09:32:34;;;;;;;7.10;1.98;;;;;;;23.27;48.30;102560.19;5005385;28;20096;-90
2022/08/08 09:35:02;;;;;;;10.18;1.95;;;;;;;23.39;47.28;102560.50;4997472;28;20029;-90
2022/08/08 09:37:29;;;;;;;5.53;1.95;;;;;;;23.55;46.90;102548.91;5008298;28;20497;-90
2022/08/08 09:40:05;;;;;;;5.18;1.70;;;;;;;23.72;46.26;102553.50;5024172;28;20037;-88
2022/08/08 09:42:58;;;;;;;6.40;1.88;;;;;;;23.88;47.30;102549.06;4997304;28;20033;-91
2022/08/08 09:45:30;;;;;;;7.05;1.80;;;;;;;24.00;45.92;102559.25;4986349;28;20064;-90
2022/08/08 09:48:00;;;;;;;7.32;1.92;;;;;;;24.14;44.41;102549.56;4990342;28;20034;-90
2022/08/08 09:50:29;;;;;;;5.50;1.50;;;;;;;24.29;44.43;102547.91;5012916;28;20040;-90
2022/08/08 09:52:56;;;;;;;4.72;1.88;;;;;;;24.55;45.33;102550.09;5033049;28;20029;-90
2022/08/08 09:55:24;;;;;;;8.02;1.70;;;;;;;24.88;45.40;102544.69;4994131;28;20030;-90
2022/08/08 09:57:57;;;;;;;8.15;2.10;;;;;;;25.13;44.53;102545.16;4992666;28;20042;-91
2022/08/08 10:00:24;;;;;;;2.92;1.30;;;;;;;25.06;42.80;102548.19;5004048;28;20037;-90
2022/08/08 10:02:51;;;;;;;6.05;1.40;;;;;;;24.82;43.80;102552.25;4995921;28;20525;-90
2022/08/08 10:05:23;;;;;;;7.30;1.80;;;;;;;24.48;44.21;102547.81;5011956;28;20029;-89
2022/08/08 10:07:51;;;;;;;5.10;1.42;;;;;;;24.14;43.93;102555.00;5027035;28;20025;-90
2022/08/08 10:10:31;;;;;;;3.30;1.30;;;;;;;23.90;44.62;102544.47;5023681;28;20099;-90
2022/08/08 10:12:57;;;;;;;5.97;1.30;;;;;;;24.28;45.23;102548.84;5003624;28;20034;-89
2022/08/08 10:15:34;;;;;;;2.90;1.02;;;;;;;24.67;43.14;102551.28;5004601;28;20049;-91
2022/08/08 10:18:00;;;;;;;4.20;1.30;;;;;;;24.70;42.59;102550.22;5023692;28;20043;-90
2022/08/08 10:20:28;;;;;;;3.42;1.20;;;;;;;24.57;43.13;102556.31;4964205;28;20390;-89
2022/08/08 10:23:03;;;;;;;2.80;0.95;;;;;;;24.31;43.39;102556.78;4986687;28;20406;-90
2022/08/08 10:25:30;;;;;;;5.35;1.20;;;;;;;24.05;42.92;102556.31;4974028;28;20045;-89
2022/08/08 10:28:05;;;;;;;4.95;1.25;;;;;;;23.89;43.63;102549.97;5032267;28;20065;-90
2022/08/08 10:30:31;;;;;;;10.07;1.52;;;;;;;23.72;44.28;102548.06;5014813;28;20049;-89
2022/08/08 10:32:58;;;;;;;3.78;1.48;;;;;;;23.65;44.57;102550.22;5002331;28;20548;-88
2022/08/08 10:35:27;;;;;;;3.55;1.42;;;;;;;23.65;44.24;102550.22;5020309;28;20068;-90
2022/08/08 10:38:00;;;;;;;4.88;1.30;;;;;;;23.60;44.97;102547.72;4995007;28;20083;-90
2022/08/08 10:40:28;;;;;;;3.17;1.10;;;;;;;23.97;44.26;102545.91;5026562;28;20029;-89
2022/08/08 10:42:57;;;;;;;2.25;1.15;;;;;;;24.49;43.74;102542.31;5023214;28;20036;-90
2022/08/08 10:45:23;;;;;;;2.00;1.17;;;;;;;25.02;41.62;102543.03;5012846;28;20042;-90
2022/08/08 10:48:00;;;;;;;2.58;0.90;;;;;;;25.28;42.55;102541.59;5014126;28;20047;-90
2022/08/08 10:50:35;;;;;;;3.92;1.02;;;;;;;25.72;40.68;102543.56;5017503;28;20057;-91
2022/08/08 10:53:03;;;;;;;3.45;1.10;;;;;;;26.09;38.99;102538.69;5007494;28;20038;-90
2022/08/08 10:55:29;;;;;;;3.30;1.17;;;;;;;26.42;38.27;102538.44;5011900;28;20038;-90
2022/08/08 10:58:00;;;;;;;4.18;1.15;;;;;;;26.27;37.70;102539.41;5027891;28;20103;-89
2022/08/08 11:00:26;;;;;;;3.88;1.17;;;;;;;26.36;37.54;102539.69;5027512;28;20484;-91
2022/08/08 11:02:53;;;;;;;4.53;0.95;;;;;;;26.32;37.79;102540.84;4997522;28;20508;-90
2022/08/08 11:05:19;;;;;;;4.00;1.00;;;;;;;26.47;38.33;102543.59;5001751;28;20061;-91
2022/08/08 11:07:50;;;;;;;2.88;0.90;;;;;;;26.70;36.48;102539.44;4995874;28;20162;-90
2022/08/08 11:10:18;;;;;;;2.17;1.10;;;;;;;26.96;36.96;102540.50;5032616;28;20033;-90
2022/08/08 11:12:56;;;;;;;4.95;1.02;;;;;;;27.24;36.45;102528.72;4983948;28;20039;-90
2022/08/08 11:15:23;;;;;;;3.50;1.00;;;;;;;26.98;35.62;102535.84;5018358;28;20033;-91
2022/08/08 11:17:50;;;;;;;4.03;1.13;;;;;;;26.62;36.72;102539.06;5009339;28;20405;-90
2022/08/08 11:20:18;;;;;;;2.65;0.90;;;;;;;26.28;36.20;102532.97;5015073;28;20057;-90
2022/08/08 11:22:50;;;;;;;3.35;1.15;;;;;;;25.93;36.24;102523.31;5023533;28;20529;-90
2022/08/08 11:25:16;;;;;;;3.70;1.45;;;;;;;25.88;37.02;102530.84;5006632;28;20103;-91
2022/08/08 11:27:46;;;;;;;2.88;0.90;;;;;;;26.12;36.18;102524.91;5025765;28;20052;-91
2022/08/08 11:30:13;;;;;;;6.82;1.23;;;;;;;26.54;36.38;102515.97;5014569;28;20134;-92
2022/08/08 11:32:41;;;;;;;3.70;0.90;;;;;;;27.00;35.61;102515.75;5029060;28;20063;-93
2022/08/08 11:35:11;;;;;;;6.28;1.27;;;;;;;27.42;36.51;102507.59;4995616;28;20516;-92
2022/08/08 11:37:40;;;;;;;3.25;0.90;;;;;;;27.67;33.90;102507.69;5013901;28;20121;-91
2022/08/08 11:40:08;;;;;;;4.47;1.13;;;;;;;27.81;33.97;102508.59;5000308;28;20037;-84
2022/08/08 11:42:34;;;;;;;6.55;1.23;;;;;;;27.92;33.81;102511.47;5014576;28;20026;-85
2022/08/08 11:45:01;;;;;;;2.10;1.02;;;;;;;27.95;33.19;102507.69;5012453;28;20125;-84
2022/08/08 11:47:28;;;;;;;5.30;1.20;;;;;;;27.76;33.72;102498.00;5024040;28;20042;-83
2022/08/08 11:50:04;;;;;;;2.92;1.08;;;;;;;27.56;33.58;102502.09;5014343;28;20050;-88
2022/08/08 11:52:31;;;;;;;5.70;1.27;;;;;;;27.49;35.13;102503.47;5022643;28;20084;-82
2022/08/08 11:54:56;;;;;;;2.90;1.20;;;;;;;28.00;36.21;102503.66;5018007;28;20461;-84